createdAt,value
2018-06-19T00:00:13.406Z,16.83
2018-06-19T00:01:13.437Z,16.86
2018-06-19T00:02:13.525Z,16.83
2018-06-19T00:03:13.573Z,16.87
2018-06-19T00:04:13.637Z,16.78
2018-06-19T00:05:13.697Z,16.78
2018-06-19T00:06:13.765Z,16.83
2018-06-19T00:07:13.833Z,16.74
2018-06-19T00:08:13.901Z,16.78
2018-06-19T00:09:13.962Z,16.71
2018-06-19T00:10:14.030Z,16.71
2018-06-19T00:11:14.090Z,16.71
2018-06-19T00:12:14.325Z,16.75
2018-06-19T00:13:14.222Z,16.72
2018-06-19T00:14:14.286Z,16.74
2018-06-19T00:15:14.350Z,16.78
2018-06-19T00:16:14.440Z,16.75
2018-06-19T00:17:14.526Z,16.75
2018-06-19T00:18:14.550Z,16.74
2018-06-19T00:19:14.614Z,16.75
2018-06-19T00:20:14.673Z,16.72
2018-06-19T00:21:14.742Z,16.65
2018-06-19T00:22:14.810Z,16.71
2018-06-19T00:23:14.878Z,16.72
2018-06-19T00:24:14.934Z,16.65
2018-06-19T00:25:15.002Z,16.60
2018-06-19T00:26:15.074Z,16.68
2018-06-19T00:27:15.527Z,16.54
2018-06-19T00:28:15.194Z,16.65
2018-06-19T00:29:15.258Z,16.54
2018-06-19T00:30:15.329Z,16.60
2018-06-19T00:31:15.390Z,16.66
2018-06-19T00:32:15.454Z,16.74
2018-06-19T00:33:15.634Z,16.72
2018-06-19T00:34:15.599Z,16.84
2018-06-19T00:35:15.650Z,16.84
2018-06-19T00:36:15.715Z,16.89
2018-06-19T00:37:15.778Z,16.84
2018-06-19T00:38:15.851Z,17.01
2018-06-19T00:39:15.949Z,16.96
2018-06-19T00:40:15.975Z,17.02
2018-06-19T00:41:16.039Z,16.94
2018-06-19T00:42:16.103Z,17.12
2018-06-19T00:43:16.167Z,17.05
2018-06-19T00:44:16.354Z,17.05
2018-06-19T00:45:16.299Z,17.05
2018-06-19T00:46:16.363Z,17.08
2018-06-19T00:47:16.427Z,17.02
2018-06-19T00:48:16.491Z,17.06
2018-06-19T00:49:16.563Z,17.05
2018-06-19T00:50:16.631Z,17.14
2018-06-19T00:51:16.687Z,17.08
2018-06-19T00:52:16.751Z,17.20
2018-06-19T00:53:16.859Z,17.14
2018-06-19T00:54:16.951Z,17.12
2018-06-19T00:55:16.951Z,17.14
2018-06-19T00:56:17.011Z,17.22
2018-06-19T00:57:17.075Z,17.14
2018-06-19T00:58:17.143Z,17.16
2018-06-19T00:59:17.227Z,17.26
2018-06-19T01:00:17.271Z,17.24
2018-06-19T01:01:17.336Z,17.22
2018-06-19T01:02:17.408Z,17.26
2018-06-19T01:03:17.463Z,17.24
2018-06-19T01:04:17.563Z,17.16
2018-06-19T01:05:17.599Z,17.09
2018-06-19T01:06:17.674Z,17.22
2018-06-19T01:07:17.723Z,17.14
2018-06-19T01:08:17.788Z,17.11
2018-06-19T01:09:17.860Z,17.08
2018-06-19T01:10:17.926Z,17.04
2018-06-19T01:11:17.984Z,17.06
2018-06-19T01:12:18.048Z,17.06
2018-06-19T01:13:18.112Z,17.05
2018-06-19T01:14:18.180Z,16.97
2018-06-19T01:15:18.260Z,17.06
2018-06-19T01:16:18.309Z,16.99
2018-06-19T01:17:18.372Z,16.94
2018-06-19T01:18:18.548Z,16.99
2018-06-19T01:19:18.569Z,16.99
2018-06-19T01:20:18.577Z,17.02
2018-06-19T01:21:18.653Z,16.99
2018-06-19T01:22:18.704Z,16.90
2018-06-19T01:23:20.605Z,16.94
2018-06-19T01:24:18.828Z,16.84
2018-06-19T01:25:18.920Z,16.89
2018-06-19T01:26:18.965Z,16.84
2018-06-19T01:27:19.049Z,16.81
2018-06-19T01:28:19.082Z,16.74
2018-06-19T01:29:19.193Z,16.78
2018-06-19T01:30:19.253Z,16.74
2018-06-19T01:31:19.281Z,16.81
2018-06-19T01:32:19.345Z,16.83
2018-06-19T01:33:19.445Z,16.74
2018-06-19T01:34:19.469Z,16.74
2018-06-19T01:35:19.554Z,16.69
2018-06-19T01:36:19.621Z,16.74
2018-06-19T01:37:19.788Z,16.76
2018-06-19T01:38:19.809Z,16.72
2018-06-19T01:39:19.889Z,16.76
2018-06-19T01:40:19.873Z,16.68
2018-06-19T01:41:19.938Z,16.72
2018-06-19T01:42:20.344Z,16.68
2018-06-19T01:43:20.063Z,16.68
2018-06-19T01:44:20.126Z,16.66
2018-06-19T01:45:20.214Z,16.60
2018-06-19T01:46:20.310Z,16.74
2018-06-19T01:47:20.814Z,16.68
2018-06-19T01:48:20.382Z,16.61
2018-06-19T01:49:20.446Z,16.56
2018-06-19T01:50:20.518Z,16.65
2018-06-19T01:51:21.622Z,16.64
2018-06-19T01:52:20.666Z,16.58
2018-06-19T01:53:20.706Z,16.65
2018-06-19T01:54:20.770Z,16.65
2018-06-19T01:55:20.830Z,16.60
2018-06-19T01:56:20.930Z,16.61
2018-06-19T01:57:20.969Z,16.61
2018-06-19T01:58:21.031Z,16.61
2018-06-19T01:59:21.086Z,16.54
2018-06-19T02:00:21.159Z,16.51
2018-06-19T02:01:21.382Z,16.53
2018-06-19T02:02:21.289Z,16.42
2018-06-19T02:03:21.342Z,16.36
2018-06-19T02:04:21.422Z,16.36
2018-06-19T02:05:21.478Z,16.38
2018-06-19T02:06:21.559Z,16.35
2018-06-19T02:07:21.692Z,16.31
2018-06-19T02:08:21.678Z,16.28
2018-06-19T02:09:21.734Z,16.35
2018-06-19T02:10:21.842Z,16.35
2018-06-19T02:11:22.008Z,16.26
2018-06-19T02:12:21.931Z,16.26
2018-06-19T02:13:22.090Z,16.17
2018-06-19T02:14:22.069Z,16.31
2018-06-19T02:15:22.127Z,16.26
2018-06-19T02:16:22.435Z,16.28
2018-06-19T02:17:22.256Z,16.20
2018-06-19T02:18:22.327Z,16.24
2018-06-19T02:19:22.383Z,16.20
2018-06-19T02:20:22.443Z,16.17
2018-06-19T02:21:22.523Z,16.23
2018-06-19T02:22:22.593Z,16.21
2018-06-19T02:23:22.639Z,16.21
2018-06-19T02:24:22.827Z,16.29
2018-06-19T02:25:23.483Z,16.38
2018-06-19T02:26:22.839Z,16.32
2018-06-19T02:27:22.916Z,16.38
2018-06-19T02:28:23.014Z,16.42
2018-06-19T02:29:23.031Z,16.53
2018-06-19T02:30:23.129Z,16.47
2018-06-19T02:31:23.196Z,16.53
2018-06-19T02:32:23.223Z,16.68
2018-06-19T02:33:23.288Z,16.57
2018-06-19T02:34:23.364Z,16.58
2018-06-19T02:35:23.492Z,16.68
2018-06-19T02:36:23.508Z,16.64
2018-06-19T02:37:23.783Z,16.68
2018-06-19T02:38:23.607Z,16.68
2018-06-19T02:39:23.688Z,16.58
2018-06-19T02:40:24.008Z,16.74
2018-06-19T02:41:23.828Z,16.66
2018-06-19T02:42:23.888Z,16.54
2018-06-19T02:43:25.624Z,16.65
2018-06-19T02:44:24.073Z,16.60
2018-06-19T02:45:24.120Z,16.60
2018-06-19T02:46:24.348Z,16.65
2018-06-19T02:47:24.220Z,16.60
2018-06-19T02:48:24.705Z,16.54
2018-06-19T02:49:24.588Z,16.69
2018-06-19T02:50:25.065Z,16.53
2018-06-19T02:51:24.456Z,16.60
2018-06-19T02:52:24.513Z,16.58
2018-06-19T02:53:24.577Z,16.58
2018-06-19T02:54:24.645Z,16.54
2018-06-19T02:55:24.708Z,16.65
2018-06-19T02:56:24.777Z,16.54
2018-06-19T02:57:24.869Z,16.68
2018-06-19T02:58:24.921Z,16.58
2018-06-19T02:59:24.972Z,16.54
2018-06-19T03:00:25.040Z,16.72
2018-06-19T03:01:25.093Z,16.60
2018-06-19T03:02:25.317Z,16.56
2018-06-19T03:03:25.221Z,16.58
2018-06-19T03:04:25.289Z,16.58
2018-06-19T03:05:25.365Z,16.72
2018-06-19T03:06:25.429Z,16.66
2018-06-19T03:07:25.644Z,16.69
2018-06-19T03:08:25.561Z,16.71
2018-06-19T03:09:25.609Z,16.57
2018-06-19T03:10:25.673Z,16.58
2018-06-19T03:11:25.781Z,16.64
2018-06-19T03:12:25.814Z,16.56
2018-06-19T03:13:25.917Z,16.50
2018-06-19T03:14:25.939Z,16.53
2018-06-19T03:15:26.004Z,16.51
2018-06-19T03:16:26.062Z,16.41
2018-06-19T03:17:26.126Z,16.38
2018-06-19T03:18:26.261Z,16.36
2018-06-19T03:19:26.268Z,16.35
2018-06-19T03:20:26.350Z,16.32
2018-06-19T03:21:26.417Z,16.26
2018-06-19T03:22:26.721Z,16.26
2018-06-19T03:23:26.518Z,16.23
2018-06-19T03:24:26.617Z,16.26
2018-06-19T03:25:26.641Z,16.24
2018-06-19T03:26:26.710Z,16.21
2018-06-19T03:27:26.765Z,16.21
2018-06-19T03:28:26.842Z,16.21
2018-06-19T03:29:26.954Z,16.26
2018-06-19T03:30:27.094Z,16.23
2018-06-19T03:31:27.055Z,16.21
2018-06-19T03:32:27.102Z,16.23
2018-06-19T03:33:27.460Z,16.17
2018-06-19T03:34:27.254Z,16.16
2018-06-19T03:35:27.290Z,16.20
2018-06-19T03:36:27.818Z,16.20
2018-06-19T03:37:27.454Z,16.24
2018-06-19T03:38:27.490Z,16.23
2018-06-19T03:39:27.674Z,16.23
2018-06-19T03:40:27.610Z,16.26
2018-06-19T03:41:27.678Z,16.23
2018-06-19T03:42:27.746Z,16.24
2018-06-19T03:43:27.810Z,16.24
2018-06-19T03:44:27.875Z,16.26
2018-06-19T03:45:27.938Z,16.28
2018-06-19T03:46:28.003Z,16.24
2018-06-19T03:47:28.122Z,16.24
2018-06-19T03:48:28.254Z,16.28
2018-06-19T03:49:28.190Z,16.26
2018-06-19T03:50:28.263Z,16.29
2018-06-19T03:51:28.322Z,16.32
2018-06-19T03:52:28.387Z,16.28
2018-06-19T03:53:28.463Z,16.28
2018-06-19T03:54:28.523Z,16.26
2018-06-19T03:55:28.580Z,16.28
2018-06-19T03:56:28.643Z,16.28
2018-06-19T03:57:28.707Z,16.33
2018-06-19T03:58:28.783Z,16.42
2018-06-19T03:59:28.843Z,16.35
2018-06-19T04:00:28.903Z,16.41
2018-06-19T04:01:28.970Z,16.50
2018-06-19T04:02:29.031Z,16.50
2018-06-19T04:03:29.107Z,16.51
2018-06-19T04:04:29.376Z,16.56
2018-06-19T04:05:29.223Z,16.61
2018-06-19T04:06:29.292Z,16.60
2018-06-19T04:07:29.355Z,16.57
2018-06-19T04:08:29.577Z,16.69
2018-06-19T04:09:29.495Z,16.69
2018-06-19T04:10:29.647Z,16.71
2018-06-19T04:11:29.619Z,16.81
2018-06-19T04:12:29.676Z,16.71
2018-06-19T04:13:29.740Z,16.84
2018-06-19T04:14:29.884Z,16.84
2018-06-19T04:15:29.926Z,16.83
2018-06-19T04:16:29.937Z,16.89
2018-06-19T04:17:30.000Z,16.89
2018-06-19T04:18:30.064Z,16.86
2018-06-19T04:19:30.228Z,16.91
2018-06-19T04:20:30.192Z,16.90
2018-06-19T04:21:30.260Z,16.93
2018-06-19T04:22:30.324Z,17.02
2018-06-19T04:23:30.388Z,16.99
2018-06-19T04:24:30.460Z,17.01
2018-06-19T04:25:30.524Z,16.97
2018-06-19T04:26:30.587Z,16.94
2018-06-19T04:27:30.644Z,16.99
2018-06-19T04:28:30.712Z,17.14
2018-06-19T04:29:30.784Z,17.08
2018-06-19T04:30:30.849Z,17.08
2018-06-19T04:31:30.904Z,17.08
2018-06-19T04:32:30.968Z,17.19
2018-06-19T04:33:31.039Z,17.09
2018-06-19T04:34:31.121Z,17.19
2018-06-19T04:35:31.165Z,17.12
2018-06-19T04:36:31.233Z,17.12
2018-06-19T04:37:31.352Z,17.19
2018-06-19T04:38:31.365Z,17.19
2018-06-19T04:39:31.429Z,17.20
2018-06-19T04:40:31.497Z,17.20
2018-06-19T04:41:31.553Z,17.27
2018-06-19T04:42:31.617Z,17.23
2018-06-19T04:43:31.685Z,17.33
2018-06-19T04:44:31.757Z,17.27
2018-06-19T04:45:32.157Z,17.33
2018-06-19T04:46:31.905Z,17.29
2018-06-19T04:47:32.029Z,17.30
2018-06-19T04:48:32.006Z,17.42
2018-06-19T04:49:32.142Z,17.36
2018-06-19T04:50:32.137Z,17.33
2018-06-19T04:51:32.202Z,17.41
2018-06-19T04:52:32.265Z,17.36
2018-06-19T04:53:32.343Z,17.39
2018-06-19T04:54:32.405Z,17.45
2018-06-19T04:55:32.537Z,17.42
2018-06-19T04:56:32.529Z,17.44
2018-06-19T04:57:32.589Z,17.44
2018-06-19T04:58:32.665Z,17.46
2018-06-19T04:59:32.974Z,17.44
2018-06-19T05:00:33.201Z,17.45
2018-06-19T05:01:32.849Z,17.42
2018-06-19T05:02:32.926Z,17.46
2018-06-19T05:03:32.985Z,17.46
2018-06-19T05:04:33.046Z,17.42
2018-06-19T05:05:33.126Z,17.46
2018-06-19T05:06:33.174Z,17.52
2018-06-19T05:07:33.242Z,17.52
2018-06-19T05:08:33.306Z,17.49
2018-06-19T05:09:33.410Z,17.54
2018-06-19T05:10:33.442Z,17.57
2018-06-19T05:11:33.531Z,17.60
2018-06-19T05:12:33.566Z,17.54
2018-06-19T05:13:33.630Z,17.52
2018-06-19T05:14:33.918Z,17.52
2018-06-19T05:15:33.767Z,17.64
2018-06-19T05:16:33.833Z,17.64
2018-06-19T05:17:33.894Z,17.60
2018-06-19T05:18:33.955Z,17.65
2018-06-19T05:19:34.027Z,17.59
2018-06-19T05:20:34.259Z,17.67
2018-06-19T05:21:34.194Z,17.68
2018-06-19T05:22:34.219Z,17.72
2018-06-19T05:23:34.279Z,17.63
2018-06-19T05:24:34.347Z,17.80
2018-06-19T05:25:34.455Z,17.72
2018-06-19T05:26:34.483Z,17.80
2018-06-19T05:27:34.707Z,17.82
2018-06-19T05:28:34.612Z,17.79
2018-06-19T05:29:34.672Z,17.80
2018-06-19T05:30:34.779Z,17.90
2018-06-19T05:31:34.807Z,17.89
2018-06-19T05:32:34.867Z,17.94
2018-06-19T05:33:34.931Z,17.98
2018-06-19T05:34:35.036Z,18.11
2018-06-19T05:35:35.064Z,18.08
2018-06-19T05:36:35.152Z,18.10
2018-06-19T05:37:35.192Z,18.18
2018-06-19T05:38:35.276Z,18.18
2018-06-19T05:39:35.324Z,18.16
2018-06-19T05:40:35.388Z,18.18
2018-06-19T05:41:35.459Z,18.15
2018-06-19T05:42:35.529Z,18.11
2018-06-19T05:43:35.583Z,18.04
2018-06-19T05:44:35.648Z,17.97
2018-06-19T05:45:35.716Z,17.97
2018-06-19T05:46:35.840Z,17.97
2018-06-19T05:47:35.852Z,18.00
2018-06-19T05:48:35.912Z,17.92
2018-06-19T05:49:35.976Z,18.01
2018-06-19T05:50:36.041Z,17.97
2018-06-19T05:51:36.132Z,18.04
2018-06-19T05:52:36.184Z,18.05
2018-06-19T05:53:36.240Z,18.10
2018-06-19T05:54:36.300Z,18.05
2018-06-19T05:55:36.396Z,18.10
2018-06-19T05:56:36.441Z,18.11
2018-06-19T05:57:36.504Z,18.16
2018-06-19T05:58:36.565Z,18.16
2018-06-19T05:59:36.632Z,18.16
2018-06-19T06:00:36.693Z,18.16
2018-06-19T06:01:36.764Z,18.18
2018-06-19T06:02:36.833Z,18.25
2018-06-19T06:03:36.889Z,18.18
2018-06-19T06:04:36.953Z,18.20
2018-06-19T06:05:37.032Z,18.19
2018-06-19T06:06:37.261Z,18.23
2018-06-19T06:07:37.149Z,18.29
2018-06-19T06:08:37.221Z,18.18
2018-06-19T06:09:37.285Z,18.20
2018-06-19T06:10:37.403Z,18.34
2018-06-19T06:11:37.417Z,18.33
2018-06-19T06:12:37.481Z,18.41
2018-06-19T06:13:37.542Z,18.38
2018-06-19T06:14:37.841Z,18.41
2018-06-19T06:15:37.746Z,18.50
2018-06-19T06:16:37.815Z,18.53
2018-06-19T06:17:37.813Z,18.45
2018-06-19T06:18:37.925Z,18.44
2018-06-19T06:19:37.975Z,18.58
2018-06-19T06:20:39.833Z,18.56
2018-06-19T06:21:38.173Z,18.66
2018-06-19T06:22:38.153Z,18.59
2018-06-19T06:23:38.195Z,18.56
2018-06-19T06:24:38.265Z,18.55
2018-06-19T06:25:38.338Z,18.56
2018-06-19T06:26:38.398Z,18.55
2018-06-19T06:27:38.934Z,18.50
2018-06-19T06:28:38.522Z,18.60
2018-06-19T06:29:38.590Z,18.59
2018-06-19T06:30:38.662Z,18.68
2018-06-19T06:31:38.727Z,18.71
2018-06-19T06:32:38.790Z,18.71
2018-06-19T06:33:38.854Z,18.70
2018-06-19T06:34:38.918Z,18.74
2018-06-19T06:35:38.982Z,18.83
2018-06-19T06:36:39.054Z,18.80
2018-06-19T06:37:39.118Z,18.86
2018-06-19T06:38:39.179Z,18.80
2018-06-19T06:39:39.247Z,18.88
2018-06-19T06:40:39.315Z,18.95
2018-06-19T06:41:39.466Z,18.93
2018-06-19T06:42:39.443Z,18.90
2018-06-19T06:43:39.507Z,18.92
2018-06-19T06:44:39.582Z,18.96
2018-06-19T06:45:39.639Z,18.96
2018-06-19T06:46:39.711Z,18.93
2018-06-19T06:47:39.803Z,18.96
2018-06-19T06:48:39.838Z,18.93
2018-06-19T06:49:39.903Z,18.92
2018-06-19T06:50:39.969Z,18.93
2018-06-19T06:51:40.048Z,18.90
2018-06-19T06:52:40.103Z,18.96
2018-06-19T06:53:40.175Z,18.98
2018-06-19T06:54:40.231Z,18.93
2018-06-19T06:55:40.300Z,18.98
2018-06-19T06:56:40.476Z,18.92
2018-06-19T06:57:40.428Z,18.93
2018-06-19T06:58:40.563Z,18.96
2018-06-19T06:59:40.559Z,18.96
2018-06-19T07:00:40.636Z,19.00
2018-06-19T07:01:40.696Z,18.99
2018-06-19T07:02:40.764Z,18.96
2018-06-19T07:03:40.820Z,19.08
2018-06-19T07:04:40.936Z,19.02
2018-06-19T07:05:40.952Z,19.11
2018-06-19T07:06:41.024Z,19.15
2018-06-19T07:07:41.125Z,19.19
2018-06-19T07:08:41.732Z,19.11
2018-06-19T07:09:41.436Z,19.07
2018-06-19T07:10:41.284Z,19.21
2018-06-19T07:11:41.368Z,19.16
2018-06-19T07:12:41.412Z,18.96
2018-06-19T07:13:41.480Z,19.08
2018-06-19T07:14:41.565Z,18.95
2018-06-19T07:15:41.658Z,18.93
2018-06-19T07:16:41.684Z,18.96
2018-06-19T07:17:41.749Z,18.90
2018-06-19T07:18:41.808Z,18.89
2018-06-19T07:19:41.873Z,18.88
2018-06-19T07:20:41.941Z,18.98
2018-06-19T07:21:42.033Z,18.90
2018-06-19T07:22:42.077Z,18.93
2018-06-19T07:23:42.604Z,18.98
2018-06-19T07:24:42.205Z,19.07
2018-06-19T07:25:42.288Z,18.99
2018-06-19T07:26:42.341Z,19.08
2018-06-19T07:27:42.404Z,19.18
2018-06-19T07:28:42.467Z,19.14
2018-06-19T07:29:42.572Z,19.12
2018-06-19T07:30:42.650Z,19.19
2018-06-19T07:31:42.693Z,19.18
2018-06-19T07:32:42.764Z,19.12
2018-06-19T07:33:42.816Z,19.16
2018-06-19T07:34:42.857Z,19.14
2018-06-19T07:35:42.941Z,19.21
2018-06-19T07:36:43.043Z,19.07
2018-06-19T07:37:43.070Z,19.00
2018-06-19T07:38:43.129Z,19.08
2018-06-19T07:39:43.189Z,19.02
2018-06-19T07:40:43.253Z,18.96
2018-06-19T07:41:43.413Z,19.07
2018-06-19T07:42:43.389Z,19.00
2018-06-19T07:43:43.466Z,19.04
2018-06-19T07:44:43.525Z,19.07
2018-06-19T07:45:43.585Z,18.99
2018-06-19T07:46:43.661Z,19.12
2018-06-19T07:47:43.743Z,19.11
2018-06-19T07:48:43.781Z,18.98
2018-06-19T07:49:43.858Z,19.12
2018-06-19T07:50:43.917Z,19.08
2018-06-19T07:51:44.066Z,19.07
2018-06-19T07:52:44.053Z,19.12
2018-06-19T07:53:44.109Z,19.08
2018-06-19T07:54:44.178Z,19.11
2018-06-19T07:55:44.242Z,19.02
2018-06-19T07:56:44.453Z,19.12
2018-06-19T07:57:44.369Z,19.12
2018-06-19T07:58:44.445Z,19.09
2018-06-19T07:59:44.510Z,19.11
2018-06-19T08:00:44.566Z,19.18
2018-06-19T08:01:44.642Z,19.21
2018-06-19T08:02:44.790Z,19.21
2018-06-19T08:03:44.833Z,19.19
2018-06-19T08:04:44.838Z,19.29
2018-06-19T08:05:44.978Z,19.34
2018-06-19T08:06:44.983Z,19.36
2018-06-19T08:07:45.051Z,19.44
2018-06-19T08:08:45.174Z,19.36
2018-06-19T08:09:45.174Z,19.36
2018-06-19T08:10:45.233Z,19.34
2018-06-19T08:11:45.303Z,19.39
2018-06-19T08:12:45.471Z,19.34
2018-06-19T08:13:45.437Z,19.26
2018-06-19T08:14:45.499Z,19.36
2018-06-19T08:15:45.567Z,19.19
2018-06-19T08:16:45.659Z,19.21
2018-06-19T08:17:45.727Z,19.18
2018-06-19T08:18:45.820Z,19.21
2018-06-19T08:19:45.823Z,19.09
2018-06-19T08:20:45.907Z,19.12
2018-06-19T08:21:45.959Z,19.11
2018-06-19T08:22:46.130Z,19.12
2018-06-19T08:23:46.119Z,19.02
2018-06-19T08:24:46.163Z,18.95
2018-06-19T08:25:46.224Z,19.04
2018-06-19T08:26:46.424Z,19.09
2018-06-19T08:27:46.380Z,19.14
2018-06-19T08:28:46.420Z,18.96
2018-06-19T08:29:46.487Z,18.93
2018-06-19T08:30:46.979Z,18.95
2018-06-19T08:31:46.740Z,18.96
2018-06-19T08:32:46.736Z,18.92
2018-06-19T08:33:46.771Z,18.95
2018-06-19T08:34:46.819Z,19.16
2018-06-19T08:35:46.903Z,19.12
2018-06-19T08:36:46.992Z,19.21
2018-06-19T08:37:47.036Z,19.33
2018-06-19T08:38:47.089Z,19.41
2018-06-19T08:39:47.148Z,19.48
2018-06-19T08:40:47.216Z,19.55
2018-06-19T08:41:47.288Z,19.54
2018-06-19T08:42:47.360Z,19.66
2018-06-19T08:43:47.404Z,19.62
2018-06-19T08:44:47.628Z,19.63
2018-06-19T08:45:47.568Z,19.64
2018-06-19T08:46:47.623Z,19.59
2018-06-19T08:47:47.916Z,19.58
2018-06-19T08:48:47.776Z,19.63
2018-06-19T08:49:47.804Z,19.77
2018-06-19T08:50:47.876Z,19.74
2018-06-19T08:51:47.944Z,19.71
2018-06-19T08:52:48.013Z,19.85
2018-06-19T08:53:48.084Z,19.94
2018-06-19T08:54:48.353Z,20.00
2018-06-19T08:55:48.205Z,20.03
2018-06-19T08:56:48.268Z,20.16
2018-06-19T08:57:48.397Z,20.24
2018-06-19T08:58:48.416Z,20.29
2018-06-19T08:59:48.464Z,20.28
2018-06-19T09:00:48.532Z,20.34
2018-06-19T09:01:48.601Z,20.41
2018-06-19T09:02:48.673Z,20.39
2018-06-19T09:03:48.825Z,20.37
2018-06-19T09:04:48.800Z,20.36
2018-06-19T09:05:48.873Z,20.32
2018-06-19T09:06:48.933Z,20.32
2018-06-19T09:07:49.015Z,20.14
2018-06-19T09:08:49.069Z,20.06
2018-06-19T09:09:49.129Z,20.07
2018-06-19T09:10:49.197Z,19.99
2018-06-19T09:11:49.265Z,19.99
2018-06-19T09:12:49.374Z,19.95
2018-06-19T09:13:49.414Z,19.77
2018-06-19T09:14:49.461Z,19.79
2018-06-19T09:15:49.526Z,19.71
2018-06-19T09:16:49.597Z,19.64
2018-06-19T09:17:49.658Z,19.76
2018-06-19T09:18:49.734Z,19.74
2018-06-19T09:19:49.797Z,19.76
2018-06-19T09:20:49.862Z,19.77
2018-06-19T09:21:49.958Z,19.88
2018-06-19T09:22:49.995Z,19.89
2018-06-19T09:23:50.070Z,20.03
2018-06-19T09:24:50.138Z,20.16
2018-06-19T09:25:50.223Z,20.21
2018-06-19T09:26:50.295Z,20.41
2018-06-19T09:27:50.326Z,20.37
2018-06-19T09:28:50.412Z,20.50
2018-06-19T09:29:50.474Z,20.60
2018-06-19T09:30:50.530Z,20.66
2018-06-19T09:31:50.602Z,20.82
2018-06-19T09:32:50.687Z,20.81
2018-06-19T09:33:50.730Z,20.99
2018-06-19T09:34:50.798Z,20.96
2018-06-19T09:35:50.859Z,21.09
2018-06-19T09:36:50.926Z,21.05
2018-06-19T09:37:50.995Z,21.18
2018-06-19T09:38:51.067Z,21.06
2018-06-19T09:39:51.232Z,21.06
2018-06-19T09:40:51.198Z,20.95
2018-06-19T09:41:51.259Z,20.80
2018-06-19T09:42:51.328Z,20.74
2018-06-19T09:43:51.399Z,20.74
2018-06-19T09:44:51.467Z,20.77
2018-06-19T09:45:51.532Z,20.67
2018-06-19T09:46:51.594Z,20.67
2018-06-19T09:47:51.658Z,20.77
2018-06-19T09:48:51.735Z,20.80
2018-06-19T09:49:51.799Z,20.74
2018-06-19T09:50:51.859Z,20.72
2018-06-19T09:51:52.038Z,20.69
2018-06-19T09:52:52.015Z,20.72
2018-06-19T09:53:52.106Z,20.77
2018-06-19T09:54:52.135Z,20.70
2018-06-19T09:55:52.200Z,20.70
2018-06-19T09:56:52.273Z,20.69
2018-06-19T09:57:52.371Z,20.67
2018-06-19T09:58:52.402Z,20.58
2018-06-19T09:59:52.515Z,20.72
2018-06-19T10:00:52.527Z,20.78
2018-06-19T10:01:52.595Z,20.82
2018-06-19T10:02:52.663Z,20.96
2018-06-19T10:03:52.735Z,21.17
2018-06-19T10:04:52.811Z,21.22
2018-06-19T10:05:52.864Z,21.17
2018-06-19T10:06:52.933Z,21.20
2018-06-19T10:07:53.016Z,21.14
2018-06-19T10:08:53.075Z,21.24
2018-06-19T10:09:53.204Z,21.21
2018-06-19T10:10:53.199Z,21.12
2018-06-19T10:11:53.295Z,21.12
2018-06-19T10:12:53.336Z,21.09
2018-06-19T10:13:53.404Z,21.07
2018-06-19T10:14:53.472Z,21.06
2018-06-19T10:15:53.552Z,21.03
2018-06-19T10:16:53.616Z,20.93
2018-06-19T10:17:53.668Z,21.11
2018-06-19T10:18:53.741Z,21.22
2018-06-19T10:19:53.836Z,21.30
2018-06-19T10:20:53.868Z,21.39
2018-06-19T10:21:53.976Z,21.57
2018-06-19T10:22:54.002Z,21.85
2018-06-19T10:23:54.496Z,22.15
2018-06-19T10:24:54.136Z,22.45
2018-06-19T10:25:54.204Z,22.53
2018-06-19T10:26:54.273Z,22.68
2018-06-19T10:27:54.337Z,22.94
2018-06-19T10:28:54.404Z,22.91
2018-06-19T10:29:54.832Z,23.12
2018-06-19T10:30:54.541Z,23.24
2018-06-19T10:31:54.609Z,23.10
2018-06-19T10:32:54.677Z,23.25
2018-06-19T10:33:54.746Z,23.41
2018-06-19T10:34:54.959Z,23.51
2018-06-19T10:35:54.886Z,23.54
2018-06-19T10:36:54.949Z,23.76
2018-06-19T10:37:55.017Z,23.40
2018-06-19T10:38:55.085Z,23.03
2018-06-19T10:39:55.173Z,22.85
2018-06-19T10:40:55.221Z,22.65
2018-06-19T10:41:55.289Z,22.73
2018-06-19T10:42:55.357Z,22.57
2018-06-19T10:43:55.425Z,22.70
2018-06-19T10:44:55.834Z,22.76
2018-06-19T10:45:55.612Z,22.73
2018-06-19T10:46:55.630Z,22.69
2018-06-19T10:47:55.701Z,22.87
2018-06-19T10:48:55.771Z,22.83
2018-06-19T10:49:55.849Z,22.78
2018-06-19T10:50:55.933Z,22.70
2018-06-19T10:51:55.969Z,22.50
2018-06-19T10:52:56.038Z,22.50
2018-06-19T10:53:56.470Z,22.20
2018-06-19T10:54:56.290Z,21.98
2018-06-19T10:55:56.258Z,21.75
2018-06-19T10:56:56.310Z,21.77
2018-06-19T10:57:56.378Z,21.77
2018-06-19T10:58:56.466Z,21.93
2018-06-19T10:59:56.522Z,22.14
2018-06-19T11:00:56.634Z,22.28
2018-06-19T11:01:56.654Z,22.43
2018-06-19T11:02:56.758Z,22.62
2018-06-19T11:03:56.786Z,22.48
2018-06-19T11:04:56.892Z,22.66
2018-06-19T11:05:56.930Z,22.88
2018-06-19T11:06:56.990Z,23.10
2018-06-19T11:07:57.059Z,23.34
2018-06-19T11:08:57.195Z,23.43
2018-06-19T11:09:57.210Z,23.54
2018-06-19T11:10:57.275Z,23.68
2018-06-19T11:11:57.363Z,23.71
2018-06-19T11:12:57.399Z,23.56
2018-06-19T11:13:57.470Z,23.55
2018-06-19T11:14:57.542Z,23.55
2018-06-19T11:15:57.611Z,23.27
2018-06-19T11:16:57.675Z,23.20
2018-06-19T11:17:57.763Z,23.36
2018-06-19T11:18:57.811Z,23.46
2018-06-19T11:19:57.936Z,23.61
2018-06-19T11:20:57.979Z,23.77
2018-06-19T11:21:58.015Z,23.87
2018-06-19T11:22:58.087Z,24.10
2018-06-19T11:23:58.192Z,23.92
2018-06-19T11:24:58.331Z,23.98
2018-06-19T11:25:58.333Z,24.13
2018-06-19T11:26:58.359Z,24.28
2018-06-19T11:27:58.453Z,24.29
2018-06-19T11:28:58.560Z,24.32
2018-06-19T11:29:58.631Z,24.30
2018-06-19T11:30:58.646Z,24.10
2018-06-19T11:31:58.703Z,24.03
2018-06-19T11:32:58.801Z,23.69
2018-06-19T11:33:58.843Z,23.46
2018-06-19T11:34:58.919Z,23.46
2018-06-19T11:35:58.987Z,23.48
2018-06-19T11:36:59.048Z,23.43
2018-06-19T11:37:59.128Z,23.39
2018-06-19T11:38:59.187Z,23.28
2018-06-19T11:39:59.352Z,23.23
2018-06-19T11:40:59.323Z,23.21
2018-06-19T11:41:59.391Z,23.21
2018-06-19T11:42:59.463Z,23.32
2018-06-19T11:43:59.534Z,23.28
2018-06-19T11:44:59.604Z,23.41
2018-06-19T11:45:59.676Z,23.51
2018-06-19T11:46:59.737Z,23.59
2018-06-19T11:47:59.880Z,23.68
2018-06-19T11:48:59.874Z,23.68
2018-06-19T11:49:59.974Z,23.78
2018-06-19T11:51:00.020Z,23.91
2018-06-19T11:52:00.084Z,23.99
2018-06-19T11:53:00.148Z,24.21
2018-06-19T11:54:00.216Z,24.21
2018-06-19T11:55:00.296Z,24.32
2018-06-19T11:56:00.599Z,24.53
2018-06-19T11:57:00.660Z,24.51
2018-06-19T11:58:00.492Z,24.58
2018-06-19T11:59:02.333Z,24.66
2018-06-19T12:00:00.633Z,24.77
2018-06-19T12:01:00.709Z,24.88
2018-06-19T12:02:00.793Z,24.92
2018-06-19T12:03:00.842Z,24.84
2018-06-19T12:04:00.909Z,24.84
2018-06-19T12:05:00.976Z,24.73
2018-06-19T12:06:01.501Z,24.54
2018-06-19T12:07:01.121Z,24.48
2018-06-19T12:08:01.185Z,24.32
2018-06-19T12:09:01.253Z,24.21
2018-06-19T12:10:01.357Z,24.05
2018-06-19T12:11:01.407Z,23.68
2018-06-19T12:12:01.465Z,23.50
2018-06-19T12:13:01.557Z,23.43
2018-06-19T12:14:01.598Z,23.25
2018-06-19T12:15:01.670Z,23.20
2018-06-19T12:16:02.381Z,23.21
2018-06-19T12:17:02.878Z,23.05
2018-06-19T12:18:02.210Z,23.05
2018-06-19T12:19:02.394Z,22.84
2018-06-19T12:20:02.170Z,22.90
2018-06-19T12:21:02.182Z,22.91
2018-06-19T12:22:02.149Z,22.94
2018-06-19T12:23:02.218Z,22.91
2018-06-19T12:24:02.322Z,23.05
2018-06-19T12:25:02.354Z,23.10
2018-06-19T12:26:03.054Z,23.20
2018-06-19T12:27:02.498Z,23.32
2018-06-19T12:28:02.561Z,23.41
2018-06-19T12:29:02.696Z,23.37
2018-06-19T12:30:02.698Z,23.48
2018-06-19T12:31:02.790Z,23.48
2018-06-19T12:32:02.862Z,23.25
2018-06-19T12:33:02.903Z,23.12
2018-06-19T12:34:02.970Z,22.90
2018-06-19T12:35:03.038Z,22.90
2018-06-19T12:36:03.134Z,22.91
2018-06-19T12:37:03.214Z,22.88
2018-06-19T12:38:03.287Z,22.72
2018-06-19T12:39:03.314Z,22.55
2018-06-19T12:40:03.386Z,22.55
2018-06-19T12:41:03.458Z,22.45
2018-06-19T12:42:03.523Z,22.38
2018-06-19T12:43:03.648Z,22.48
2018-06-19T12:44:03.658Z,22.54
2018-06-19T12:45:03.745Z,22.51
2018-06-19T12:46:03.816Z,22.44
2018-06-19T12:47:03.871Z,22.54
2018-06-19T12:48:03.927Z,22.53
2018-06-19T12:49:03.995Z,22.57
2018-06-19T12:50:04.067Z,22.81
2018-06-19T12:51:04.472Z,22.94
2018-06-19T12:52:04.427Z,22.96
2018-06-19T12:53:04.271Z,23.03